createdAt,value
2023-05-25T00:02:09.290Z,8.83
2023-05-25T00:04:38.470Z,11.40
2023-05-25T00:07:06.771Z,9.30
2023-05-25T00:09:36.362Z,8.97
2023-05-25T00:12:04.840Z,8.07
2023-05-25T00:14:33.020Z,7.57
2023-05-25T00:17:03.984Z,8.60
2023-05-25T00:19:34.003Z,9.13
2023-05-25T00:22:03.048Z,9.10
2023-05-25T00:24:31.801Z,10.33
2023-05-25T00:27:00.536Z,7.70
2023-05-25T00:29:28.966Z,8.43
2023-05-25T00:31:57.229Z,10.07
2023-05-25T00:34:25.590Z,9.03
2023-05-25T00:36:55.356Z,9.03
2023-05-25T00:39:23.525Z,7.70
2023-05-25T00:41:51.869Z,8.60
2023-05-25T00:44:21.676Z,9.47
2023-05-25T00:46:52.448Z,10.67
2023-05-25T00:49:23.521Z,8.83
2023-05-25T00:51:54.404Z,8.53
2023-05-25T00:54:22.916Z,10.20
2023-05-25T00:56:57.241Z,9.33
2023-05-25T00:59:35.689Z,9.60
2023-05-25T01:02:06.969Z,8.23
2023-05-25T01:04:38.105Z,10.60
2023-05-25T01:07:12.848Z,7.97
2023-05-25T01:09:44.684Z,10.63
2023-05-25T01:12:15.980Z,10.20
2023-05-25T01:14:46.734Z,7.63
2023-05-25T01:17:16.334Z,9.57
2023-05-25T01:19:49.705Z,10.50
2023-05-25T01:22:38.174Z,10.73
2023-05-25T01:25:14.642Z,8.40
2023-05-25T01:27:49.709Z,10.30
2023-05-25T01:30:23.287Z,8.17
2023-05-25T01:32:54.319Z,9.47
2023-05-25T01:35:24.128Z,8.40
2023-05-25T01:37:53.971Z,9.50
2023-05-25T01:40:22.257Z,10.07
2023-05-25T01:42:50.371Z,10.50
2023-05-25T01:45:18.570Z,7.80
2023-05-25T01:47:58.547Z,9.93
2023-05-25T01:50:52.332Z,8.47
2023-05-25T01:53:27.656Z,9.60
2023-05-25T01:56:01.683Z,9.10
2023-05-25T01:58:36.539Z,11.60
2023-05-25T02:01:05.161Z,8.00
2023-05-25T02:03:33.455Z,10.80
2023-05-25T02:06:01.825Z,9.87
2023-05-25T02:08:31.438Z,11.37
2023-05-25T02:10:59.566Z,9.77
2023-05-25T02:13:27.875Z,12.23
2023-05-25T02:15:56.348Z,10.03
2023-05-25T02:18:24.754Z,10.80
2023-05-25T02:20:53.269Z,11.57
2023-05-25T02:23:21.709Z,10.63
2023-05-25T02:25:51.678Z,9.47
2023-05-25T02:28:19.993Z,10.07
2023-05-25T02:30:48.197Z,8.77
2023-05-25T02:33:16.413Z,10.27
2023-05-25T02:35:45.034Z,11.23
2023-05-25T02:38:13.433Z,11.50
2023-05-25T02:40:42.665Z,10.37
2023-05-25T02:43:12.157Z,10.77
2023-05-25T02:45:40.339Z,9.37
2023-05-25T02:48:08.550Z,11.90
2023-05-25T02:50:37.022Z,10.77
2023-05-25T02:53:05.248Z,13.40
2023-05-25T02:55:33.413Z,12.30
2023-05-25T02:58:01.609Z,11.27
2023-05-25T03:00:31.907Z,10.27
2023-05-25T03:03:00.212Z,12.17
2023-05-25T03:05:28.374Z,11.17
2023-05-25T03:07:56.536Z,11.03
2023-05-25T03:10:24.649Z,13.83
2023-05-25T03:12:52.757Z,13.47
2023-05-25T03:15:20.991Z,11.83
2023-05-25T03:17:50.889Z,9.93
2023-05-25T03:20:20.807Z,8.80
2023-05-25T03:22:48.956Z,11.33
2023-05-25T03:25:17.268Z,9.90
2023-05-25T03:27:45.449Z,13.97
2023-05-25T03:30:15.004Z,12.83
2023-05-25T03:32:43.261Z,13.33
2023-05-25T03:35:12.899Z,12.23
2023-05-25T03:37:41.058Z,11.70
2023-05-25T03:40:11.513Z,12.20
2023-05-25T03:42:40.015Z,10.67
2023-05-25T03:45:10.017Z,12.87
2023-05-25T03:47:38.664Z,14.13
2023-05-25T03:50:08.755Z,12.87
2023-05-25T03:52:38.320Z,11.97
2023-05-25T03:55:07.385Z,12.80
2023-05-25T03:57:35.674Z,12.00
2023-05-25T04:00:04.720Z,10.73
2023-05-25T04:02:34.672Z,13.03
2023-05-25T04:05:03.028Z,12.30
2023-05-25T04:07:31.249Z,12.33
2023-05-25T04:10:00.963Z,13.23
2023-05-25T04:12:29.169Z,12.13
2023-05-25T04:14:57.429Z,12.83
2023-05-25T04:17:25.731Z,10.87
2023-05-25T04:19:54.213Z,11.50
2023-05-25T04:22:22.395Z,10.90
2023-05-25T04:24:50.623Z,14.37
2023-05-25T04:27:20.961Z,13.27
2023-05-25T04:29:50.428Z,13.63
2023-05-25T04:32:18.826Z,14.33
2023-05-25T04:34:48.211Z,11.90
2023-05-25T04:37:17.200Z,9.03
2023-05-25T04:39:45.390Z,12.30
2023-05-25T04:42:13.546Z,11.53
2023-05-25T04:44:43.169Z,13.23
2023-05-25T04:47:12.167Z,11.73
2023-05-25T04:49:40.314Z,12.17
2023-05-25T04:52:08.458Z,12.23
2023-05-25T04:54:37.410Z,10.93
2023-05-25T04:57:06.296Z,9.77
2023-05-25T04:59:34.506Z,11.47
2023-05-25T05:02:04.053Z,9.20
2023-05-25T05:04:32.226Z,9.70
2023-05-25T05:07:00.920Z,8.77
2023-05-25T05:09:29.054Z,17.77
2023-05-25T05:11:57.245Z,8.95
2023-05-25T05:14:25.425Z,10.55
2023-05-25T05:16:53.524Z,11.63
2023-05-25T05:19:23.511Z,10.75
2023-05-25T05:21:51.636Z,12.43
2023-05-25T05:24:19.732Z,10.05
2023-05-25T05:26:56.298Z,10.10
2023-05-25T05:29:26.695Z,10.18
2023-05-25T05:31:55.383Z,11.35
2023-05-25T05:34:24.906Z,12.85
2023-05-25T05:36:58.170Z,10.80
2023-05-25T05:39:28.206Z,10.93
2023-05-25T05:41:57.056Z,16.30
2023-05-25T05:44:28.819Z,13.40
2023-05-25T05:47:00.833Z,13.85
2023-05-25T05:49:31.812Z,15.43
2023-05-25T05:52:00.377Z,15.30
2023-05-25T05:54:28.536Z,14.90
2023-05-25T05:56:56.781Z,14.82
2023-05-25T05:59:24.925Z,16.80
2023-05-25T06:01:53.080Z,12.00
2023-05-25T06:04:25.188Z,12.00
2023-05-25T06:06:54.626Z,11.15
2023-05-25T06:09:22.764Z,12.07
2023-05-25T06:11:51.461Z,14.63
2023-05-25T06:14:19.692Z,16.38
2023-05-25T06:16:47.787Z,14.30
2023-05-25T06:19:16.091Z,17.92
2023-05-25T06:21:44.232Z,21.38
2023-05-25T06:24:13.661Z,16.17
2023-05-25T06:26:41.788Z,20.38
2023-05-25T06:29:09.909Z,17.67
2023-05-25T06:31:38.095Z,20.35
2023-05-25T06:34:06.399Z,22.20
2023-05-25T06:36:34.564Z,26.67
2023-05-25T06:39:02.730Z,19.52
2023-05-25T06:41:32.211Z,20.88
2023-05-25T06:44:00.385Z,22.35
2023-05-25T06:46:28.543Z,20.83
2023-05-25T06:48:56.713Z,22.02
2023-05-25T06:51:27.390Z,21.58
2023-05-25T06:53:57.337Z,26.80
2023-05-25T06:56:26.280Z,22.77
2023-05-25T06:58:55.765Z,19.42
2023-05-25T07:01:24.002Z,19.13
2023-05-25T07:03:52.167Z,22.05
2023-05-25T07:06:22.120Z,19.85
2023-05-25T07:08:50.317Z,20.98
2023-05-25T07:11:20.711Z,22.08
2023-05-25T07:13:48.891Z,19.13
2023-05-25T07:16:18.422Z,21.45
2023-05-25T07:18:46.603Z,23.02
2023-05-25T07:21:14.733Z,18.52
2023-05-25T07:23:42.965Z,18.17
2023-05-25T07:26:11.131Z,18.75
2023-05-25T07:28:39.299Z,22.48
2023-05-25T07:31:07.509Z,19.85
2023-05-25T07:33:37.121Z,16.60
2023-05-25T07:36:06.054Z,20.83
2023-05-25T07:38:34.246Z,15.88
2023-05-25T07:41:02.371Z,17.38
2023-05-25T07:43:30.496Z,18.88
2023-05-25T07:45:58.839Z,17.38
2023-05-25T07:48:26.963Z,16.58
2023-05-25T07:50:56.490Z,20.95
2023-05-25T07:53:24.733Z,15.02
2023-05-25T07:55:52.985Z,16.05
2023-05-25T07:58:21.373Z,14.50
2023-05-25T08:00:50.341Z,18.60
2023-05-25T08:03:20.946Z,15.90
2023-05-25T08:05:52.288Z,13.65
2023-05-25T08:08:22.060Z,19.13
2023-05-25T08:10:50.182Z,16.02
2023-05-25T08:13:18.337Z,12.73
2023-05-25T08:15:46.670Z,12.70
2023-05-25T08:18:14.843Z,15.73
2023-05-25T08:20:43.030Z,18.13
2023-05-25T08:23:11.182Z,16.48
2023-05-25T08:25:41.087Z,15.48
2023-05-25T08:28:09.152Z,17.75
2023-05-25T08:30:37.320Z,13.52
2023-05-25T08:33:06.859Z,13.75
2023-05-25T08:35:39.251Z,14.93
2023-05-25T08:38:07.575Z,16.05
2023-05-25T08:40:35.722Z,13.23
2023-05-25T08:43:05.214Z,12.30
2023-05-25T08:45:36.714Z,11.05
2023-05-25T08:48:26.870Z,11.07
2023-05-25T08:50:58.535Z,9.85
2023-05-25T08:53:29.120Z,12.05
2023-05-25T08:55:59.930Z,10.52
2023-05-25T08:58:35.092Z,16.92
2023-05-25T09:01:09.195Z,11.98
2023-05-25T09:03:39.178Z,11.35
2023-05-25T09:06:08.310Z,12.68
2023-05-25T09:08:39.299Z,10.93
2023-05-25T09:11:09.947Z,12.10
2023-05-25T09:13:41.337Z,9.75
2023-05-25T09:16:11.053Z,10.43
2023-05-25T09:18:40.132Z,11.60
2023-05-25T09:21:08.328Z,11.40
2023-05-25T09:23:38.221Z,10.30
2023-05-25T09:26:06.621Z,13.63
2023-05-25T09:28:34.677Z,9.52
2023-05-25T09:31:04.201Z,7.68
2023-05-25T09:33:33.237Z,8.27
2023-05-25T09:36:02.964Z,15.75
2023-05-25T09:38:32.110Z,9.32
2023-05-25T09:41:00.569Z,9.90
2023-05-25T09:43:40.588Z,10.80
2023-05-25T09:46:12.836Z,14.43
2023-05-25T09:48:41.315Z,9.10
2023-05-25T09:51:10.146Z,9.30
2023-05-25T09:53:38.410Z,8.70
2023-05-25T09:56:07.544Z,10.20
2023-05-25T09:58:36.037Z,9.18
2023-05-25T10:01:04.647Z,11.43
2023-05-25T10:03:34.224Z,6.93
2023-05-25T10:06:04.169Z,9.60
2023-05-25T10:08:33.474Z,9.05
2023-05-25T10:11:02.346Z,10.25
2023-05-25T10:13:33.451Z,7.63
2023-05-25T10:16:03.154Z,8.70
2023-05-25T10:18:37.592Z,11.18
2023-05-25T10:21:09.980Z,7.05
2023-05-25T10:23:46.031Z,7.32
2023-05-25T10:26:21.367Z,9.63
2023-05-25T10:28:52.805Z,11.68
2023-05-25T10:31:22.698Z,10.10
2023-05-25T10:33:52.771Z,10.88
2023-05-25T10:36:23.075Z,10.52
2023-05-25T10:38:53.146Z,10.32
2023-05-25T10:41:21.896Z,10.63
2023-05-25T10:43:53.314Z,9.48
2023-05-25T10:46:22.465Z,8.73
2023-05-25T10:48:52.826Z,8.25
2023-05-25T10:51:21.519Z,8.13
2023-05-25T10:54:01.654Z,8.75
2023-05-25T10:56:29.798Z,11.10
2023-05-25T10:58:58.067Z,11.27
2023-05-25T11:01:26.918Z,9.98
2023-05-25T11:04:17.503Z,8.63
2023-05-25T11:07:13.494Z,10.70
2023-05-25T11:09:58.147Z,6.55
2023-05-25T11:12:27.870Z,9.73
2023-05-25T11:15:16.218Z,7.40
2023-05-25T11:18:01.302Z,10.98
2023-05-25T11:20:31.885Z,10.05
2023-05-25T11:23:00.059Z,12.07
2023-05-25T11:25:41.271Z,9.05
2023-05-25T11:28:11.583Z,7.18
2023-05-25T11:30:42.564Z,8.60
2023-05-25T11:33:11.374Z,6.40
2023-05-25T11:35:45.403Z,10.23
2023-05-25T11:38:13.819Z,5.85
2023-05-25T11:40:41.916Z,6.30
2023-05-25T11:43:10.748Z,7.53
2023-05-25T11:45:39.261Z,7.68
2023-05-25T11:48:08.220Z,7.57
2023-05-25T11:50:36.451Z,5.93
2023-05-25T11:53:08.100Z,9.25
2023-05-25T11:55:40.083Z,8.75
2023-05-25T11:58:08.213Z,8.05
2023-05-25T12:00:36.305Z,8.07
2023-05-25T12:03:05.682Z,8.35
2023-05-25T12:05:40.665Z,6.80
2023-05-25T12:08:10.174Z,5.45
2023-05-25T12:10:51.960Z,7.28
2023-05-25T12:13:21.339Z,6.20
2023-05-25T12:15:49.614Z,6.55
2023-05-25T12:18:18.108Z,8.38
2023-05-25T12:20:46.600Z,8.95
2023-05-25T12:23:16.852Z,7.50
2023-05-25T12:25:51.030Z,6.95
2023-05-25T12:28:19.538Z,8.57
2023-05-25T12:30:47.942Z,6.07
2023-05-25T12:33:16.510Z,6.38
2023-05-25T12:35:49.624Z,7.13
2023-05-25T12:38:22.086Z,8.07
2023-05-25T12:41:07.033Z,10.23
2023-05-25T12:43:39.930Z,6.65
2023-05-25T12:46:08.090Z,8.88
2023-05-25T12:48:36.329Z,9.25
2023-05-25T12:51:04.688Z,8.68
2023-05-25T12:53:50.902Z,7.63
2023-05-25T12:56:19.289Z,6.72
2023-05-25T12:58:47.509Z,6.95
2023-05-25T13:01:15.619Z,7.25
2023-05-25T13:03:43.690Z,7.57
2023-05-25T13:06:11.750Z,6.45
2023-05-25T13:08:41.380Z,7.45
2023-05-25T13:11:09.654Z,7.47
2023-05-25T13:13:37.928Z,6.90
2023-05-25T13:16:06.659Z,6.18
2023-05-25T13:18:34.766Z,8.20
2023-05-25T13:21:03.050Z,5.78
2023-05-25T13:23:32.269Z,6.50
2023-05-25T13:26:01.677Z,5.95
2023-05-25T13:28:29.771Z,6.85
2023-05-25T13:30:57.880Z,6.40
2023-05-25T13:33:25.991Z,8.52
2023-05-25T13:36:08.369Z,7.18
2023-05-25T13:38:38.102Z,5.32
2023-05-25T13:41:07.638Z,6.90
2023-05-25T13:43:36.056Z,6.18
2023-05-25T13:46:04.318Z,7.15
2023-05-25T13:48:32.456Z,10.85
2023-05-25T13:51:00.573Z,6.47
2023-05-25T13:53:28.677Z,7.93
2023-05-25T13:55:56.744Z,7.90
2023-05-25T13:58:26.262Z,7.10
2023-05-25T14:00:54.390Z,8.23
2023-05-25T14:03:22.709Z,6.63
2023-05-25T14:05:51.304Z,8.32
2023-05-25T14:08:19.333Z,7.70
2023-05-25T14:10:47.535Z,6.80
2023-05-25T14:13:15.892Z,8.10
2023-05-25T14:15:46.751Z,7.80
2023-05-25T14:18:15.204Z,10.18
2023-05-25T14:20:43.366Z,11.60
2023-05-25T14:23:14.218Z,8.00
2023-05-25T14:25:48.896Z,10.32
2023-05-25T14:28:17.025Z,8.43
2023-05-25T14:30:46.508Z,9.15
2023-05-25T14:33:17.221Z,7.70
2023-05-25T14:35:45.680Z,7.55
2023-05-25T14:38:14.238Z,7.88
2023-05-25T14:40:42.348Z,6.65
2023-05-25T14:43:15.916Z,5.15
2023-05-25T14:45:44.261Z,8.02
2023-05-25T14:48:16.936Z,9.23
2023-05-25T14:50:45.783Z,9.07
2023-05-25T14:53:14.560Z,6.43
2023-05-25T14:55:42.939Z,6.93
2023-05-25T14:58:11.869Z,9.70
2023-05-25T15:00:39.932Z,8.45
2023-05-25T15:03:08.166Z,6.45
2023-05-25T15:05:37.770Z,7.78
2023-05-25T15:08:06.237Z,8.25
2023-05-25T15:10:34.340Z,10.25
2023-05-25T15:13:02.442Z,7.75
2023-05-25T15:15:30.845Z,10.10
2023-05-25T15:17:58.987Z,8.00
2023-05-25T15:20:27.167Z,6.75
2023-05-25T15:22:56.618Z,8.32
2023-05-25T15:27:59.565Z,7.22
2023-05-25T15:30:27.811Z,6.47
2023-05-25T15:32:55.948Z,7.30
2023-05-25T15:35:31.029Z,6.47
2023-05-25T15:38:00.877Z,8.07
2023-05-25T15:40:29.156Z,9.98
2023-05-25T15:42:57.232Z,8.23
2023-05-25T15:45:26.171Z,7.95
2023-05-25T15:47:54.384Z,8.65
2023-05-25T15:50:22.569Z,7.05
2023-05-25T15:52:50.730Z,7.45
2023-05-25T15:55:20.573Z,7.63
2023-05-25T15:57:48.757Z,7.28
2023-05-25T16:00:17.893Z,8.05
2023-05-25T16:02:46.091Z,9.27
2023-05-25T16:05:14.305Z,7.80
2023-05-25T16:07:42.505Z,6.38
2023-05-25T16:10:11.453Z,8.10
2023-05-25T16:12:41.032Z,6.15
2023-05-25T16:15:10.545Z,6.10
2023-05-25T16:17:38.702Z,7.32
2023-05-25T16:20:09.264Z,9.57
2023-05-25T16:22:37.360Z,6.22
2023-05-25T16:25:06.373Z,8.32
2023-05-25T16:27:34.536Z,9.90
2023-05-25T16:30:04.224Z,8.00
2023-05-25T16:32:32.771Z,7.93
2023-05-25T16:35:01.520Z,7.28
2023-05-25T16:37:29.620Z,9.38
2023-05-25T16:39:57.732Z,7.45
2023-05-25T16:42:26.409Z,7.25
2023-05-25T16:44:54.448Z,6.43
2023-05-25T16:47:24.146Z,6.20
2023-05-25T16:49:52.231Z,9.35
2023-05-25T16:52:20.349Z,10.13
2023-05-25T16:54:48.430Z,6.40
2023-05-25T16:57:16.520Z,7.00
2023-05-25T16:59:45.571Z,7.80
2023-05-25T17:02:13.709Z,7.78
2023-05-25T17:04:43.464Z,7.15
2023-05-25T17:07:11.592Z,8.75
2023-05-25T17:09:39.819Z,7.03
2023-05-25T17:12:09.221Z,9.02
2023-05-25T17:14:37.384Z,7.70
2023-05-25T17:17:06.134Z,6.90
2023-05-25T17:19:34.636Z,6.82
2023-05-25T17:22:04.231Z,7.03
2023-05-25T17:24:32.363Z,7.55
2023-05-25T17:27:01.709Z,7.82
2023-05-25T17:29:29.840Z,9.05
2023-05-25T17:31:58.015Z,8.75
2023-05-25T17:34:26.171Z,6.05
2023-05-25T17:36:54.293Z,6.70
2023-05-25T17:39:23.773Z,8.13
2023-05-25T17:41:52.012Z,6.25
2023-05-25T17:44:20.191Z,6.32
2023-05-25T17:46:48.578Z,5.43
2023-05-25T17:49:16.738Z,9.02
2023-05-25T17:51:44.850Z,8.07
2023-05-25T17:54:15.338Z,6.03
2023-05-25T17:56:44.859Z,6.43
2023-05-25T17:59:13.251Z,5.22
2023-05-25T18:01:41.795Z,7.13
2023-05-25T18:04:10.276Z,6.55
2023-05-25T18:06:38.535Z,8.77
2023-05-25T18:09:06.938Z,7.13
2023-05-25T18:11:36.519Z,6.55
2023-05-25T18:14:06.237Z,6.50
2023-05-25T18:16:39.482Z,7.72
2023-05-25T18:19:09.393Z,4.95
2023-05-25T18:21:39.190Z,7.60
2023-05-25T18:24:08.988Z,6.35
2023-05-25T18:26:37.142Z,7.18
2023-05-25T18:29:06.675Z,5.38
2023-05-25T18:31:34.967Z,5.47
2023-05-25T18:34:03.281Z,6.55
2023-05-25T18:36:33.038Z,4.63
2023-05-25T18:39:01.280Z,4.65
2023-05-25T18:41:29.639Z,7.05
2023-05-25T18:43:58.219Z,8.00
2023-05-25T18:46:28.833Z,4.53
2023-05-25T18:48:57.286Z,6.55
2023-05-25T18:51:25.882Z,7.00
2023-05-25T18:53:54.738Z,6.07
2023-05-25T18:56:22.905Z,6.90
2023-05-25T18:58:52.100Z,6.88
2023-05-25T19:01:20.391Z,5.68
2023-05-25T19:03:49.972Z,5.22
2023-05-25T19:06:18.266Z,7.03
2023-05-25T19:08:46.510Z,7.28
2023-05-25T19:11:15.525Z,9.85
2023-05-25T19:13:44.124Z,5.53
2023-05-25T19:16:12.490Z,7.28
2023-05-25T19:18:40.726Z,5.85
2023-05-25T19:21:10.320Z,7.50
2023-05-25T19:23:38.537Z,6.85
2023-05-25T19:26:06.740Z,6.95
2023-05-25T19:28:35.061Z,6.45
2023-05-25T19:31:03.273Z,6.93
2023-05-25T19:33:31.466Z,6.03
2023-05-25T19:35:59.642Z,9.00
2023-05-25T19:38:40.343Z,7.25
2023-05-25T19:41:09.239Z,7.65
2023-05-25T19:43:38.236Z,9.10
2023-05-25T19:46:06.831Z,8.90
2023-05-25T19:48:35.258Z,9.38
2023-05-25T19:51:03.454Z,8.20
2023-05-25T19:53:33.040Z,8.90
2023-05-25T19:56:03.164Z,9.85
2023-05-25T19:58:31.529Z,10.52
2023-05-25T20:01:00.064Z,9.55
2023-05-25T20:03:28.353Z,7.78
2023-05-25T20:05:57.778Z,10.50
2023-05-25T20:08:27.175Z,7.75
2023-05-25T20:10:56.737Z,9.45
2023-05-25T20:13:25.045Z,8.25
2023-05-25T20:15:53.486Z,10.07
2023-05-25T20:18:23.873Z,11.60
2023-05-25T20:20:52.437Z,8.20
2023-05-25T20:23:20.822Z,10.00
2023-05-25T20:25:49.199Z,12.37
2023-05-25T20:28:19.573Z,11.57
2023-05-25T20:30:47.952Z,11.03
2023-05-25T20:33:16.347Z,10.80
2023-05-25T20:35:44.688Z,11.70
2023-05-25T20:38:13.132Z,10.97
2023-05-25T20:40:41.274Z,10.20
2023-05-25T20:43:09.413Z,9.10
2023-05-25T20:45:38.972Z,10.00
2023-05-25T20:48:07.417Z,9.10
2023-05-25T20:50:35.590Z,11.23
2023-05-25T20:53:03.952Z,8.80
2023-05-25T20:55:32.096Z,10.67
2023-05-25T20:58:00.989Z,7.97
2023-05-25T21:00:29.262Z,8.93
2023-05-25T21:02:59.153Z,10.27
2023-05-25T21:05:27.340Z,10.43
2023-05-25T21:07:55.477Z,12.50
2023-05-25T21:10:23.673Z,12.27
2023-05-25T21:12:51.984Z,9.40
2023-05-25T21:15:20.083Z,9.27
2023-05-25T21:17:48.262Z,11.07
2023-05-25T21:20:18.051Z,6.93
2023-05-25T21:22:46.258Z,10.83
2023-05-25T21:25:14.432Z,10.35
2023-05-25T21:27:42.744Z,9.33
2023-05-25T21:30:12.130Z,9.70
2023-05-25T21:32:40.997Z,9.30
2023-05-25T21:35:09.288Z,8.50
2023-05-25T21:37:38.817Z,10.63
2023-05-25T21:40:08.873Z,12.43
2023-05-25T21:42:37.260Z,7.57
2023-05-25T21:45:06.332Z,10.97
2023-05-25T21:47:34.424Z,12.10
2023-05-25T21:50:02.671Z,10.37
2023-05-25T21:52:30.842Z,10.20
2023-05-25T21:55:00.337Z,10.80
2023-05-25T21:57:28.483Z,8.63
2023-05-25T21:59:56.568Z,7.07
2023-05-25T22:02:24.852Z,10.07
2023-05-25T22:04:53.074Z,8.60
2023-05-25T22:07:21.272Z,8.67
2023-05-25T22:09:49.409Z,11.90
2023-05-25T22:12:20.636Z,9.53
2023-05-25T22:14:49.184Z,9.40
2023-05-25T22:17:18.879Z,10.23
2023-05-25T22:19:55.243Z,8.83
2023-05-25T22:22:23.910Z,10.30
2023-05-25T22:24:52.233Z,9.33
2023-05-25T22:27:21.903Z,10.73
2023-05-25T22:29:50.243Z,9.33
2023-05-25T22:32:18.365Z,10.13
2023-05-25T22:34:47.241Z,11.13
2023-05-25T22:37:17.233Z,9.93
2023-05-25T22:39:45.868Z,14.23
2023-05-25T22:42:14.027Z,9.70
2023-05-25T22:44:43.554Z,6.90
2023-05-25T22:47:11.755Z,9.83
2023-05-25T22:49:43.002Z,10.00
2023-05-25T22:52:13.274Z,11.63
2023-05-25T22:54:41.403Z,9.67
2023-05-25T22:57:11.113Z,8.20
2023-05-25T22:59:39.230Z,11.17
2023-05-25T23:02:08.920Z,9.90
2023-05-25T23:04:37.354Z,9.57
2023-05-25T23:07:06.051Z,9.83
2023-05-25T23:09:34.229Z,12.13
2023-05-25T23:12:02.707Z,11.80
2023-05-25T23:14:31.340Z,7.53
2023-05-25T23:16:59.468Z,8.97
2023-05-25T23:19:29.052Z,9.37
2023-05-25T23:21:58.561Z,9.70
2023-05-25T23:24:26.963Z,9.83
2023-05-25T23:26:55.064Z,10.03
2023-05-25T23:29:23.258Z,9.30
2023-05-25T23:31:51.461Z,11.37
2023-05-25T23:34:19.890Z,9.97
2023-05-25T23:36:49.390Z,11.40
2023-05-25T23:39:17.819Z,8.93
2023-05-25T23:41:45.946Z,9.23
2023-05-25T23:44:14.282Z,8.13
2023-05-25T23:46:42.670Z,12.40
2023-05-25T23:49:10.840Z,10.57
2023-05-25T23:51:38.989Z,9.53
2023-05-25T23:54:08.744Z,10.43
2023-05-25T23:56:36.865Z,7.87
2023-05-25T23:59:05.262Z,8.53
